Time;durP1;ratioP1;P1;durP2;ratioP2;P2;SDS_P1;SDS_P2;PMS_P1;PMS_P2;Temp;Humidity;BMP_temperature;BMP_pressure;BME280_temperature;BME280_humidity;BME280_pressure;Samples;Min_cycle;Max_cycle;Signal;HPM_P1;HPM_P2
2022/05/31 00:01:47;;;;;;;14.85;4.43;;;18.50;99.90;;;;;;5032814;28;20627;-58
2022/05/31 00:04:51;;;;;;;15.18;4.00;;;18.40;99.90;;;;;;5031889;28;20041;-57
2022/05/31 00:07:55;;;;;;;11.95;4.30;;;18.30;99.90;;;;;;5031255;28;20052;-57
2022/05/31 00:11:00;;;;;;;15.77;5.28;;;18.10;99.90;;;;;;5031768;28;20040;-57
2022/05/31 00:14:05;;;;;;;13.93;4.57;;;18.00;99.90;;;;;;5032026;28;20044;-57
2022/05/31 00:17:08;;;;;;;9.02;4.30;;;17.90;99.90;;;;;;5030707;28;20555;-56
2022/05/31 00:20:14;;;;;;;11.55;4.32;;;17.90;99.90;;;;;;5030660;28;20130;-58
2022/05/31 00:23:20;;;;;;;12.07;4.50;;;17.70;99.90;;;;;;5030928;28;20061;-57
2022/05/31 00:26:24;;;;;;;15.60;4.78;;;17.70;99.90;;;;;;5030028;28;20049;-58
2022/05/31 00:29:28;;;;;;;9.73;4.80;;;17.60;99.90;;;;;;5030178;28;20055;-58
2022/05/31 00:32:35;;;;;;;19.67;5.72;;;17.50;99.90;;;;;;5031984;28;20041;-57
2022/05/31 00:35:41;;;;;;;12.88;5.15;;;17.40;99.90;;;;;;5031109;28;20048;-56
2022/05/31 00:38:44;;;;;;;14.75;5.20;;;17.40;99.90;;;;;;5030373;28;20064;-58
2022/05/31 00:42:14;;;;;;;14.55;5.15;;;17.40;99.90;;;;;;5031205;28;20056;-57
2022/05/31 00:45:19;;;;;;;11.95;4.82;;;17.40;99.90;;;;;;5030211;28;20072;-58
2022/05/31 00:48:38;;;;;;;14.23;4.70;;;17.50;99.90;;;;;;5030429;28;20048;-56
2022/05/31 00:51:47;;;;;;;18.65;5.45;;;17.50;99.90;;;;;;5031139;28;20247;-57
2022/05/31 00:55:16;;;;;;;17.02;6.05;;;17.60;99.90;;;;;;5030466;28;20040;-56
2022/05/31 00:58:32;;;;;;;15.75;4.60;;;17.60;99.90;;;;;;5030537;28;20049;-57
2022/05/31 01:01:41;;;;;;;15.38;4.43;;;17.60;99.90;;;;;;5030308;28;20056;-55
2022/05/31 01:04:56;;;;;;;15.82;4.32;;;17.70;99.90;;;;;;5030432;28;20413;-59
2022/05/31 01:08:01;;;;;;;11.68;4.40;;;17.70;99.90;;;;;;5029917;28;20041;-57
2022/05/31 01:11:21;;;;;;;14.15;4.57;;;17.70;99.90;;;;;;5029086;28;20109;-58
2022/05/31 01:14:43;;;;;;;15.90;5.20;;;17.70;99.90;;;;;;5030327;28;20052;-59
2022/05/31 01:18:06;;;;;;;13.18;4.20;;;17.70;99.90;;;;;;5030082;28;20052;-57
2022/05/31 01:21:16;;;;;;;14.73;4.20;;;17.80;99.90;;;;;;5030972;28;20044;-57
2022/05/31 01:25:04;;;;;;;14.07;5.25;;;17.80;99.90;;;;;;5028569;28;20044;-59
2022/05/31 01:28:26;;;;;;;15.65;4.43;;;17.70;99.90;;;;;;5028977;28;20040;-57
2022/05/31 01:31:39;;;;;;;12.73;4.40;;;17.70;99.90;;;;;;5029045;28;20503;-56
2022/05/31 01:35:04;;;;;;;12.68;4.53;;;17.70;99.90;;;;;;5029449;28;20041;-57
2022/05/31 01:38:17;;;;;;;14.93;4.28;;;17.60;99.90;;;;;;5028752;28;20044;-58
2022/05/31 01:41:28;;;;;;;14.38;4.85;;;17.60;99.90;;;;;;5029470;28;20520;-54
2022/05/31 01:44:35;;;;;;;13.93;4.50;;;17.60;99.90;;;;;;5029927;28;20068;-59
2022/05/31 01:47:40;;;;;;;18.52;5.20;;;17.60;99.90;;;;;;5029248;28;20428;-57
2022/05/31 01:50:46;;;;;;;12.32;4.75;;;17.50;99.90;;;;;;5028934;28;20052;-57
2022/05/31 01:53:52;;;;;;;15.82;4.63;;;17.50;99.90;;;;;;5029006;28;20531;-58
2022/05/31 01:57:00;;;;;;;12.57;4.60;;;17.40;99.90;;;;;;5028251;28;20460;-59
2022/05/31 02:00:10;;;;;;;14.00;4.57;;;17.40;99.90;;;;;;5028504;28;20072;-60
2022/05/31 02:03:21;;;;;;;11.23;4.95;;;17.30;99.90;;;;;;5028891;28;20129;-59
2022/05/31 02:06:28;;;;;;;15.50;5.07;;;17.30;99.90;;;;;;5029485;28;20069;-58
2022/05/31 02:09:34;;;;;;;18.92;6.43;;;17.20;99.90;;;;;;5028168;28;20052;-58
2022/05/31 02:12:38;;;;;;;13.30;5.57;;;17.10;99.90;;;;;;5028381;28;20060;-57
2022/05/31 02:16:05;;;;;;;15.07;4.95;;;17.10;99.90;;;;;;5029876;28;20056;-58
2022/05/31 02:19:15;;;;;;;17.77;5.25;;;17.10;99.90;;;;;;5029006;28;20052;-58
2022/05/31 02:22:51;;;;;;;15.35;6.05;;;17.00;99.90;;;;;;5040426;28;20044;-57
2022/05/31 02:25:55;;;;;;;19.88;6.65;;;16.90;99.90;;;;;;5048360;28;20515;-58
2022/05/31 02:29:00;;;;;;;25.40;6.22;;;16.80;99.90;;;;;;5047943;28;20135;-57
2022/05/31 02:32:08;;;;;;;18.15;6.43;;;16.80;99.90;;;;;;5048762;28;20044;-58
2022/05/31 02:35:12;;;;;;;20.52;6.10;;;16.80;99.90;;;;;;5047366;28;20052;-58
2022/05/31 02:38:16;;;;;;;17.05;6.45;;;16.90;99.90;;;;;;5048014;28;20036;-56
2022/05/31 02:41:21;;;;;;;20.40;6.00;;;16.80;99.90;;;;;;5048192;28;20040;-55
2022/05/31 02:44:25;;;;;;;19.75;6.20;;;16.80;99.90;;;;;;5046988;28;20350;-58
2022/05/31 02:47:30;;;;;;;16.27;7.03;;;16.80;99.90;;;;;;5047758;28;20040;-58
2022/05/31 02:50:39;;;;;;;21.40;6.22;;;16.80;99.90;;;;;;5047845;28;20044;-58
2022/05/31 02:53:43;;;;;;;15.80;5.63;;;16.70;99.90;;;;;;5048343;28;20052;-57
2022/05/31 02:56:48;;;;;;;17.25;6.00;;;16.70;99.90;;;;;;5047653;28;20558;-58
2022/05/31 03:00:19;;;;;;;20.42;6.35;;;16.70;99.90;;;;;;5050357;28;20051;-58
2022/05/31 03:03:42;;;;;;;13.90;6.05;;;16.70;99.90;;;;;;5052572;28;20526;-58
2022/05/31 03:07:15;;;;;;;15.48;5.50;;;16.70;99.90;;;;;;5026118;28;20040;-54
2022/05/31 03:10:44;;;;;;;10.25;5.13;;;16.60;99.90;;;;;;5053281;28;20063;-58
2022/05/31 03:13:52;;;;;;;18.83;5.68;;;16.60;99.90;;;;;;5052493;28;20052;-58
2022/05/31 03:17:07;;;;;;;12.13;5.38;;;16.60;99.90;;;;;;5052121;28;20052;-58
2022/05/31 03:20:19;;;;;;;13.30;5.55;;;16.60;99.90;;;;;;5051124;28;20064;-57
2022/05/31 03:23:30;;;;;;;17.20;5.97;;;16.50;99.90;;;;;;5051720;28;20049;-57
2022/05/31 03:26:36;;;;;;;14.80;5.93;;;16.30;99.90;;;;;;5052395;28;20060;-56
2022/05/31 03:29:45;;;;;;;14.52;6.50;;;16.30;99.90;;;;;;5050170;28;20036;-58
2022/05/31 03:32:51;;;;;;;11.73;6.30;;;16.20;99.90;;;;;;5052161;28;20411;-55
2022/05/31 03:35:55;;;;;;;22.55;7.70;;;16.10;99.90;;;;;;5051919;28;20060;-57
2022/05/31 03:39:13;;;;;;;16.52;6.22;;;16.00;99.90;;;;;;5050732;28;20040;-58
2022/05/31 03:42:17;;;;;;;11.65;6.07;;;16.00;99.90;;;;;;5050859;28;20048;-54
2022/05/31 03:45:23;;;;;;;14.38;6.63;;;15.90;99.90;;;;;;5051692;28;20072;-58
2022/05/31 03:48:50;;;;;;;19.98;5.53;;;15.90;99.90;;;;;;5051662;28;20044;-56
2022/05/31 03:51:54;;;;;;;16.50;6.00;;;15.90;99.90;;;;;;5051421;28;20507;-55
2022/05/31 03:55:03;;;;;;;20.45;5.78;;;15.90;99.90;;;;;;5051167;28;20522;-58
2022/05/31 03:58:37;;;;;;;17.52;5.60;;;16.00;99.90;;;;;;5052156;28;20052;-55
2022/05/31 04:02:00;;;;;;;16.88;6.35;;;16.00;99.90;;;;;;5056818;22;20396;-71
2022/05/31 04:05:04;;;;;;;20.77;7.97;;;16.10;99.90;;;;;;5051330;28;20052;-71
2022/05/31 04:08:11;;;;;;;25.17;9.68;;;16.10;99.90;;;;;;5051681;28;20039;-71
2022/05/31 04:11:16;;;;;;;21.15;8.13;;;16.20;99.90;;;;;;5051581;28;20044;-71
2022/05/31 04:14:20;;;;;;;14.55;7.70;;;16.10;99.90;;;;;;5052161;28;20052;-71
2022/05/31 04:17:31;;;;;;;20.30;6.57;;;16.20;99.90;;;;;;5051497;28;20060;-71
2022/05/31 04:20:42;;;;;;;17.35;6.65;;;16.30;99.90;;;;;;5052471;28;20051;-71
2022/05/31 04:23:59;;;;;;;14.05;6.28;;;16.50;99.90;;;;;;5050633;28;20053;-71
2022/05/31 04:27:17;;;;;;;12.25;4.95;;;16.70;99.90;;;;;;5051103;28;20514;-71
2022/05/31 04:30:44;;;;;;;13.85;4.50;;;16.90;99.90;;;;;;5052129;28;20043;-71
2022/05/31 04:34:07;;;;;;;12.30;4.53;;;17.80;99.90;;;;;;5032283;28;20076;-71
2022/05/31 04:37:12;;;;;;;16.80;4.22;;;19.20;99.90;;;;;;5048628;28;20383;-71
2022/05/31 04:40:37;;;;;;;15.30;4.07;;;19.50;99.90;;;;;;5050181;28;20060;-71
2022/05/31 04:44:04;;;;;;;8.40;3.13;;;20.60;99.90;;;;;;5036159;28;20048;-72
2022/05/31 04:47:15;;;;;;;;;;;20.50;99.90;;;;;;5031517;28;20048;-72
2022/05/31 04:50:25;;;;;;;12.07;4.13;;;20.70;99.90;;;;;;5058094;28;20312;-72
2022/05/31 04:53:30;;;;;;;9.10;3.70;;;21.30;99.90;;;;;;5050641;28;20052;-71
2022/05/31 04:57:07;;;;;;;9.60;2.90;;;20.90;99.90;;;;;;5025175;28;20052;-72
2022/05/31 05:00:13;;;;;;;12.77;2.80;;;20.80;99.90;;;;;;5047231;28;20048;-72
2022/05/31 05:03:48;;;;;;;6.53;3.38;;;21.40;99.90;;;;;;5051658;28;20048;-72
2022/05/31 05:06:52;;;;;;;10.63;2.90;;;22.00;99.90;;;;;;5050768;28;20043;-71
2022/05/31 05:09:59;;;;;;;12.52;3.17;;;21.80;99.90;;;;;;5051575;28;20379;-72
2022/05/31 05:13:03;;;;;;;8.77;2.90;;;21.30;99.90;;;;;;5051933;28;20044;-71
2022/05/31 05:16:27;;;;;;;14.35;4.00;;;20.90;99.90;;;;;;5049694;28;20159;-72
2022/05/31 05:19:32;;;;;;;12.18;3.65;;;20.40;99.90;;;;;;5050395;28;20048;-72
2022/05/31 05:22:37;;;;;;;9.52;3.75;;;20.10;99.90;;;;;;5046063;28;20044;-72
2022/05/31 05:25:50;;;;;;;14.10;4.63;;;19.70;99.90;;;;;;5049641;28;20123;-72
2022/05/31 05:32:22;;;;;;;10.00;3.35;;;19.20;99.90;;;;;;5029959;28;20044;-72
2022/05/31 05:35:45;;;;;;;11.55;3.75;;;19.10;99.90;;;;;;5044719;28;20048;-72
2022/05/31 05:38:49;;;;;;;8.88;3.40;;;19.30;99.90;;;;;;5049180;28;20060;-72
2022/05/31 05:42:15;;;;;;;18.73;4.72;;;19.10;99.90;;;;;;5050424;28;20047;-72
2022/05/31 05:45:38;;;;;;;12.27;4.75;;;18.50;99.90;;;;;;5031124;28;20042;-72
2022/05/31 05:48:42;;;;;;;12.60;5.13;;;18.20;99.90;;;;;;5046206;28;20052;-72
2022/05/31 05:51:49;;;;;;;15.85;5.40;;;18.10;99.90;;;;;;5048885;28;20047;-71
2022/05/31 05:54:59;;;;;;;12.65;5.18;;;18.30;99.90;;;;;;5030408;28;20399;-72
2022/05/31 05:58:39;;;;;;;9.57;4.50;;;18.50;99.90;;;;;;5049311;28;20048;-72
2022/05/31 06:02:29;;;;;;;13.48;5.07;;;18.90;99.90;;;;;;5050319;28;20072;-72
2022/05/31 06:05:56;;;;;;;15.65;6.25;;;19.30;99.90;;;;;;5050335;28;20053;-72
2022/05/31 06:09:00;;;;;;;13.63;6.15;;;19.60;99.90;;;;;;5050509;28;20048;-72
2022/05/31 06:12:15;;;;;;;12.93;6.05;;;19.90;99.90;;;;;;5050180;28;20040;-72
2022/05/31 06:15:27;;;;;;;18.20;5.97;;;20.30;99.90;;;;;;5049236;28;20044;-72
2022/05/31 06:18:56;;;;;;;9.23;4.95;;;21.10;99.90;;;;;;5049306;28;20069;-72
2022/05/31 06:22:01;;;;;;;15.23;5.60;;;21.90;99.90;;;;;;5049984;28;20118;-72
2022/05/31 06:25:21;;;;;;;13.60;4.00;;;22.90;99.90;;;;;;5048842;28;20051;-72
2022/05/31 06:28:53;;;;;;;9.88;3.10;;;24.80;99.90;;;;;;5047942;28;20044;-72
2022/05/31 06:31:57;;;;;;;11.75;3.05;;;27.10;99.90;;;;;;5049494;28;20510;-72
2022/05/31 06:35:10;;;;;;;12.77;3.45;;;28.60;99.90;;;;;;5049006;28;20044;-72
2022/05/31 06:38:34;;;;;;;11.52;2.88;;;29.50;99.90;;;;;;5046450;28;20052;-72
2022/05/31 06:41:38;;;;;;;9.70;2.22;;;30.00;99.90;;;;;;5047522;28;20065;-72
2022/05/31 06:45:00;;;;;;;10.75;3.30;;;30.50;99.20;;;;;;5049928;28;20052;-72
2022/05/31 06:48:23;;;;;;;12.75;2.60;;;30.80;98.00;;;;;;5047935;28;20043;-72
2022/05/31 06:59:15;;;;;;;12.15;3.45;;;32.40;96.00;;;;;;5033936;28;20974;-72
2022/05/31 07:02:19;;;;;;;10.25;2.65;;;32.00;95.30;;;;;;5042101;28;20073;-73
2022/05/31 07:05:23;;;;;;;10.68;3.05;;;28.50;97.90;;;;;;5043603;28;20044;-72
2022/05/31 07:08:28;;;;;;;11.45;2.80;;;27.90;98.70;;;;;;5047481;28;20676;-74
2022/05/31 07:11:35;;;;;;;8.27;2.78;;;28.80;98.20;;;;;;5048123;28;20040;-75
2022/05/31 07:15:13;;;;;;;9.63;2.72;;;29.30;97.90;;;;;;5033997;28;20044;-75
2022/05/31 07:18:38;;;;;;;10.88;3.00;;;28.40;98.20;;;;;;5048598;28;20036;-73
2022/05/31 07:21:43;;;;;;;12.50;3.10;;;29.60;98.00;;;;;;5041758;28;20040;-73
2022/05/31 07:24:48;;;;;;;7.07;2.40;;;28.10;98.10;;;;;;5044793;28;20155;-73
2022/05/31 07:28:05;;;;;;;9.18;3.00;;;27.10;99.30;;;;;;5046273;28;20044;-73
2022/05/31 07:31:09;;;;;;;9.27;3.17;;;25.50;99.90;;;;;;5047420;28;20080;-73
2022/05/31 07:34:27;;;;;;;12.00;2.78;;;26.40;99.90;;;;;;5043208;28;20056;-73
2022/05/31 07:37:32;;;;;;;8.68;2.55;;;27.30;99.90;;;;;;5045374;28;20056;-73
2022/05/31 07:40:39;;;;;;;10.15;2.80;;;27.80;99.90;;;;;;5047591;28;20043;-73
2022/05/31 07:43:42;;;;;;;9.32;3.05;;;27.90;99.70;;;;;;5047094;28;20048;-72
2022/05/31 07:46:49;;;;;;;8.63;3.13;;;26.80;99.90;;;;;;5058995;28;20044;-72
2022/05/31 07:49:54;;;;;;;10.68;3.55;;;25.70;99.90;;;;;;5037236;28;20500;-72
2022/05/31 07:53:27;;;;;;;11.90;3.22;;;24.90;99.90;;;;;;5030372;28;20052;-72
2022/05/31 07:56:35;;;;;;;10.48;3.30;;;24.90;99.90;;;;;;5050583;28;20032;-72
2022/05/31 08:00:05;;;;;;;21.50;3.50;;;25.70;99.90;;;;;;5040042;28;20407;-72
2022/05/31 08:03:25;;;;;;;7.80;3.03;;;26.90;99.90;;;;;;5049071;28;20526;-71
2022/05/31 08:06:32;;;;;;;10.95;3.20;;;27.30;99.90;;;;;;5050305;28;20048;-72
2022/05/31 08:09:36;;;;;;;13.10;2.63;;;29.60;99.90;;;;;;5051811;28;20048;-72
2022/05/31 08:12:40;;;;;;;8.57;2.60;;;31.50;98.20;;;;;;5043520;28;20495;-72
2022/05/31 08:15:44;;;;;;;9.10;3.30;;;32.60;96.60;;;;;;5044992;28;20060;-72
2022/05/31 08:18:51;;;;;;;11.88;2.72;;;33.00;95.40;;;;;;5048254;28;20032;-72
2022/05/31 08:21:57;;;;;;;6.47;3.05;;;33.20;94.50;;;;;;5046744;28;20063;-71
2022/05/31 08:25:03;;;;;;;8.05;3.05;;;32.90;94.40;;;;;;5046664;28;20044;-72
2022/05/31 08:28:07;;;;;;;14.80;3.65;;;32.80;94.60;;;;;;5049114;28;20055;-72
2022/05/31 08:31:15;;;;;;;8.75;3.25;;;31.40;95.00;;;;;;5047874;28;20048;-72
2022/05/31 08:34:21;;;;;;;10.23;3.93;;;30.60;95.60;;;;;;5023553;28;20047;-72
2022/05/31 08:37:25;;;;;;;11.70;3.97;;;29.30;95.70;;;;;;5048257;28;20046;-72
2022/05/31 08:40:28;;;;;;;14.52;3.70;;;31.20;95.60;;;;;;5046347;28;20052;-72
2022/05/31 08:43:42;;;;;;;10.70;3.83;;;32.50;94.30;;;;;;5045181;28;20043;-72
2022/05/31 08:47:11;;;;;;;8.98;3.55;;;32.20;93.60;;;;;;5043800;28;20036;-72
2022/05/31 08:56:56;;;;;;;12.40;3.78;;;30.90;95.10;;;;;;5046951;28;20064;-72
2022/05/31 08:57:20;;;;;;;9.82;3.40;;;30.90;94.90;;;;;;5047562;28;20458;-72
2022/05/31 09:00:31;;;;;;;13.05;3.95;;;30.30;95.20;;;;;;5048768;28;20056;-71
2022/05/31 09:03:46;;;;;;;11.70;3.88;;;30.20;95.80;;;;;;5046767;28;20386;-72
2022/05/31 09:07:08;;;;;;;12.10;4.05;;;30.00;96.10;;;;;;5048096;28;20044;-72
2022/05/31 09:10:51;;;;;;;17.98;3.85;;;30.60;95.70;;;;;;5043047;28;20051;-73
2022/05/31 09:14:07;;;;;;;11.65;3.45;;;32.50;94.10;;;;;;5048063;28;20056;-73
2022/05/31 09:17:26;;;;;;;9.60;2.90;;;32.90;94.40;;;;;;5046483;28;20055;-72
2022/05/31 09:20:39;;;;;;;7.97;2.95;;;34.20;92.80;;;;;;5047552;28;20044;-72
2022/05/31 09:23:45;;;;;;;11.88;2.95;;;36.30;92.00;;;;;;5045706;28;20043;-72
2022/05/31 09:27:09;;;;;;;12.63;2.72;;;34.40;91.10;;;;;;5045481;28;20052;-71
2022/05/31 09:30:31;;;;;;;9.88;2.88;;;34.80;91.30;;;;;;5045367;28;20028;-72
2022/05/31 09:33:49;;;;;;;12.73;3.38;;;31.20;92.60;;;;;;5044278;28;20044;-72
2022/05/31 09:37:12;;;;;;;12.20;2.97;;;30.40;93.10;;;;;;5046619;28;20056;-73
2022/05/31 09:40:28;;;;;;;10.27;2.50;;;29.80;94.40;;;;;;5048208;28;20052;-72
2022/05/31 09:43:41;;;;;;;17.90;2.88;;;31.30;94.20;;;;;;5044103;28;20044;-73
2022/05/31 09:47:20;;;;;;;15.07;3.15;;;33.30;92.20;;;;;;5034050;28;20040;-73
2022/05/31 09:50:27;;;;;;;13.38;2.53;;;33.50;91.20;;;;;;5049659;28;20036;-73
2022/05/31 09:57:28;;;;;;;12.35;3.00;;;29.70;93.70;;;;;;5043137;28;20048;-72
2022/05/31 10:01:05;;;;;;;12.07;3.90;;;29.40;94.30;;;;;;5047780;28;20391;-72
2022/05/31 10:04:13;;;;;;;12.13;3.10;;;30.50;93.40;;;;;;5046064;28;20047;-74
2022/05/31 10:07:35;;;;;;;13.90;2.92;;;32.00;92.40;;;;;;5042786;28;20048;-72
2022/05/31 10:10:46;;;;;;;15.50;2.77;;;34.10;91.20;;;;;;5045684;28;20064;-73
2022/05/31 10:14:11;;;;;;;11.63;2.30;;;33.90;90.40;;;;;;5040188;28;20048;-72
2022/05/31 10:17:37;;;;;;;13.82;3.10;;;32.20;91.20;;;;;;5045007;28;20055;-72
2022/05/31 10:20:57;;;;;;;14.65;2.80;;;32.90;91.90;;;;;;5042767;28;20044;-72
2022/05/31 10:24:22;;;;;;;11.82;2.47;;;33.30;90.30;;;;;;5047210;28;20048;-72
2022/05/31 10:27:44;;;;;;;9.70;2.58;;;35.10;90.10;;;;;;5047176;28;20392;-71
2022/05/31 10:31:28;;;;;;;11.13;2.85;;;36.40;87.60;;;;;;5047365;28;20625;-73
2022/05/31 10:34:44;;;;;;;14.45;2.67;;;37.20;85.80;;;;;;5045618;28;20048;-74
2022/05/31 10:37:59;;;;;;;12.30;2.22;;;35.50;88.20;;;;;;5045405;28;20502;-72
2022/05/31 10:41:07;;;;;;;10.07;3.13;;;36.70;84.10;;;;;;5047115;28;20155;-73
2022/05/31 10:44:25;;;;;;;13.57;2.67;;;36.60;86.10;;;;;;5043451;28;20056;-73
2022/05/31 10:47:29;;;;;;;15.32;3.17;;;38.50;82.30;;;;;;5044641;28;20044;-71
2022/05/31 10:51:02;;;;;;;12.43;2.50;;;37.60;81.20;;;;;;5047301;28;20056;-72
2022/05/31 10:54:15;;;;;;;12.10;2.42;;;38.10;81.90;;;;;;5045390;28;20048;-72
2022/05/31 10:57:19;;;;;;;14.85;3.03;;;31.50;88.30;;;;;;5044721;28;20036;-71
2022/05/31 11:00:38;;;;;;;8.68;2.58;;;33.50;86.70;;;;;;5047555;28;20056;-72
2022/05/31 11:03:49;;;;;;;10.93;2.92;;;35.30;86.20;;;;;;5048489;28;20036;-71
2022/05/31 11:07:15;;;;;;;9.95;2.42;;;32.80;89.60;;;;;;5045687;28;20039;-73
2022/05/31 11:13:53;;;;;;;14.50;3.13;;;35.80;84.00;;;;;;5044195;28;20044;-71
2022/05/31 11:17:04;;;;;;;16.23;3.10;;;35.40;85.80;;;;;;5046830;28;20044;-72
2022/05/31 11:20:21;;;;;;;11.43;3.00;;;35.00;85.30;;;;;;5042976;28;20510;-72
2022/05/31 11:23:34;;;;;;;13.85;3.17;;;34.90;81.00;;;;;;5046523;28;20497;-72
2022/05/31 11:27:22;;;;;;;8.07;2.60;;;34.90;82.40;;;;;;5042280;28;20040;-72
2022/05/31 11:30:35;;;;;;;14.25;2.63;;;36.40;80.00;;;;;;5055380;28;20040;-72
2022/05/31 11:33:59;;;;;;;10.00;2.42;;;35.90;84.00;;;;;;5048974;28;20040;-72
2022/05/31 11:37:10;;;;;;;12.85;2.22;;;36.80;82.40;;;;;;5046721;28;20059;-71
2022/05/31 11:40:23;;;;;;;13.63;2.80;;;35.00;81.70;;;;;;5047886;28;20048;-72
2022/05/31 11:44:04;;;;;;;11.98;2.70;;;33.40;84.80;;;;;;5051164;28;20478;-72
2022/05/31 11:47:12;;;;;;;7.25;2.25;;;32.60;85.60;;;;;;5044157;28;20047;-71
2022/05/31 11:51:07;;;;;;;11.15;2.47;;;32.80;83.70;;;;;;5051211;28;20407;-72
2022/05/31 11:54:23;;;;;;;9.85;2.58;;;35.00;82.30;;;;;;5018904;28;20044;-72
2022/05/31 11:57:49;;;;;;;13.30;2.50;;;34.90;80.50;;;;;;5046446;28;20482;-72
2022/05/31 12:01:21;;;;;;;13.00;2.78;;;31.50;83.80;;;;;;5048147;28;20047;-72
2022/05/31 12:04:39;;;;;;;10.25;3.22;;;32.70;83.80;;;;;;5049169;28;20047;-72
2022/05/31 12:08:02;;;;;;;8.70;2.60;;;30.20;87.60;;;;;;5045730;28;20044;-71
2022/05/31 12:11:17;;;;;;;15.20;2.95;;;30.20;90.50;;;;;;5045858;28;20024;-72
2022/05/31 12:14:24;;;;;;;11.68;3.03;;;29.70;90.50;;;;;;5043824;28;20399;-72
2022/05/31 12:17:39;;;;;;;13.00;3.80;;;31.20;89.60;;;;;;5049586;28;20047;-71
2022/05/31 12:20:59;;;;;;;9.95;2.70;;;32.50;88.70;;;;;;5039468;28;20040;-73
2022/05/31 12:24:17;;;;;;;7.55;2.13;;;31.40;89.90;;;;;;5049908;28;20051;-72
2022/05/31 12:27:29;;;;;;;15.52;2.70;;;32.90;87.50;;;;;;5045578;28;20048;-72
2022/05/31 12:30:57;;;;;;;11.20;3.33;;;33.00;86.00;;;;;;5049849;28;20051;-71
2022/05/31 12:34:31;;;;;;;13.00;3.47;;;31.80;87.10;;;;;;5049878;28;20052;-72
2022/05/31 12:38:04;;;;;;;13.23;3.13;;;31.40;89.60;;;;;;5048672;28;20043;-72
2022/05/31 12:41:32;;;;;;;14.73;3.35;;;30.90;89.70;;;;;;5045765;28;20036;-71
2022/05/31 12:44:37;;;;;;;15.82;3.42;;;30.20;89.80;;;;;;5048093;28;20036;-72
2022/05/31 12:47:42;;;;;;;7.60;3.03;;;29.50;90.30;;;;;;5049916;28;20597;-71
2022/05/31 12:50:56;;;;;;;10.15;2.53;;;30.90;88.00;;;;;;5046228;28;20044;-72
2022/05/31 12:54:11;;;;;;;13.05;3.13;;;30.00;88.80;;;;;;5045878;28;20047;-72
2022/05/31 12:58:26;;;;;;;12.23;2.90;;;29.70;89.60;;;;;;5041957;28;20387;-72
2022/05/31 13:01:27;;;;;;;11.32;2.72;;;31.30;89.60;;;;;;5050559;28;20502;-71
2022/05/31 13:04:33;;;;;;;12.60;2.53;;;32.50;86.50;;;;;;5047557;28;20052;-71
2022/05/31 13:07:47;;;;;;;16.85;3.15;;;31.70;88.30;;;;;;5044739;28;20043;-72
2022/05/31 13:21:17;;;;;;;15.68;3.45;;;31.00;90.00;;;;;;5042674;28;20506;-72
2022/05/31 13:24:23;;;;;;;14.13;3.50;;;30.90;89.70;;;;;;5043720;28;20052;-72
2022/05/31 13:27:29;;;;;;;17.90;3.63;;;31.70;90.00;;;;;;5044931;28;20048;-71
2022/05/31 13:30:42;;;;;;;14.93;2.70;;;32.00;87.80;;;;;;5049077;28;20420;-72
2022/05/31 13:34:00;;;;;;;17.15;3.35;;;31.80;90.00;;;;;;5045748;28;20511;-72
2022/05/31 13:37:16;;;;;;;15.15;3.92;;;31.00;90.20;;;;;;5048951;28;20039;-73
2022/05/31 13:40:22;;;;;;;20.70;3.78;;;28.80;90.80;;;;;;5048760;28;20043;-73
2022/05/31 13:43:32;;;;;;;12.63;3.28;;;29.00;91.00;;;;;;5046538;28;20557;-73
2022/05/31 13:46:47;;;;;;;14.77;3.53;;;29.80;91.00;;;;;;5047793;28;20067;-73
2022/05/31 13:49:51;;;;;;;12.38;3.75;;;30.10;91.50;;;;;;5034387;28;20051;-74
2022/05/31 13:52:55;;;;;;;10.30;3.25;;;29.90;91.30;;;;;;5049781;28;20052;-72
2022/05/31 13:56:00;;;;;;;10.18;3.45;;;30.00;91.10;;;;;;5048681;28;20056;-74
2022/05/31 13:59:05;;;;;;;17.27;3.65;;;30.40;90.60;;;;;;5048743;28;20400;-73
2022/05/31 14:02:17;;;;;;;11.73;3.10;;;28.70;90.70;;;;;;5046828;28;20048;-74
2022/05/31 14:05:28;;;;;;;14.07;3.20;;;29.50;91.10;;;;;;5042267;28;20047;-73
2022/05/31 14:08:46;;;;;;;9.95;2.92;;;30.10;90.50;;;;;;5045393;28;20104;-72
2022/05/31 14:12:03;;;;;;;7.47;3.10;;;30.90;89.30;;;;;;5047810;28;20525;-72
2022/05/31 14:15:23;;;;;;;12.25;3.55;;;31.10;90.00;;;;;;5048283;28;20527;-73
2022/05/31 14:18:28;;;;;;;15.10;3.55;;;31.50;89.80;;;;;;5043116;28;20507;-74
2022/05/31 14:21:41;;;;;;;13.43;3.05;;;29.70;90.10;;;;;;5043893;28;20044;-72
2022/05/31 14:24:48;;;;;;;10.20;3.17;;;29.10;92.10;;;;;;5047159;28;20059;-73
2022/05/31 14:27:52;;;;;;;9.63;4.10;;;28.70;92.40;;;;;;5047991;28;20486;-74
2022/05/31 14:31:06;;;;;;;15.98;3.05;;;28.40;92.70;;;;;;5049282;28;20063;-73
2022/05/31 14:34:28;;;;;;;10.20;3.10;;;28.70;92.20;;;;;;5048256;28;20044;-73
2022/05/31 14:37:44;;;;;;;13.30;3.80;;;29.70;92.40;;;;;;5043990;28;20032;-72
2022/05/31 14:41:18;;;;;;;14.45;3.50;;;29.70;91.40;;;;;;5044166;28;20040;-73
2022/05/31 14:44:45;;;;;;;16.08;3.17;;;29.50;92.20;;;;;;5048279;28;20376;-74
2022/05/31 14:47:50;;;;;;;12.65;3.90;;;29.60;91.50;;;;;;5043366;28;20028;-73
2022/05/31 14:51:01;;;;;;;14.07;3.30;;;28.90;92.10;;;;;;5047187;28;20044;-73
2022/05/31 14:54:35;;;;;;;23.48;3.47;;;29.20;92.60;;;;;;5047466;28;20077;-73
2022/05/31 15:01:41;;;;;;;18.15;3.97;;;29.50;92.50;;;;;;5054085;28;20079;-73
2022/05/31 15:04:47;;;;;;;10.27;3.13;;;28.50;92.30;;;;;;5053372;28;20797;-72
2022/05/31 15:08:01;;;;;;;9.88;3.05;;;28.90;92.60;;;;;;5052582;28;20513;-72
2022/05/31 15:21:17;;;;;;;12.88;3.63;;;29.00;92.00;;;;;;5051961;28;20047;-73
2022/05/31 15:24:25;;;;;;;16.45;3.10;;;29.00;92.30;;;;;;5053655;28;20040;-72
2022/05/31 15:27:33;;;;;;;10.93;3.38;;;29.70;91.90;;;;;;5051700;28;20040;-72
2022/05/31 15:30:38;;;;;;;13.35;2.90;;;29.00;92.30;;;;;;5052497;28;20052;-72
2022/05/31 15:33:43;;;;;;;15.50;3.17;;;29.40;92.30;;;;;;5053082;28;20510;-72
2022/05/31 15:36:48;;;;;;;12.77;4.20;;;29.50;92.60;;;;;;5052308;28;20047;-72
2022/05/31 15:39:53;;;;;;;12.60;3.22;;;29.20;92.90;;;;;;5051962;28;20518;-73
2022/05/31 15:42:57;;;;;;;11.95;3.25;;;28.80;92.70;;;;;;5053318;28;20043;-72
2022/05/31 15:46:01;;;;;;;14.48;3.25;;;28.80;92.90;;;;;;5052440;28;20055;-72
2022/05/31 15:49:07;;;;;;;24.25;3.50;;;28.90;92.60;;;;;;5051551;28;20060;-72
2022/05/31 15:52:22;;;;;;;11.23;3.20;;;28.40;93.10;;;;;;5052574;28;20126;-73
2022/05/31 15:55:27;;;;;;;8.50;3.00;;;28.10;93.90;;;;;;5033051;28;20044;-72
2022/05/31 15:58:33;;;;;;;16.50;4.18;;;28.20;93.70;;;;;;5048739;28;20048;-73
2022/05/31 16:01:38;;;;;;;15.65;3.80;;;28.50;93.10;;;;;;5051721;28;20510;-72
2022/05/31 16:04:42;;;;;;;12.93;4.03;;;27.70;93.20;;;;;;5052608;28;20502;-73
2022/05/31 16:07:50;;;;;;;10.48;3.20;;;27.60;94.10;;;;;;5051097;28;20391;-73
2022/05/31 16:10:54;;;;;;;12.77;3.65;;;27.50;94.30;;;;;;5051578;28;20048;-72
2022/05/31 16:13:58;;;;;;;19.60;3.83;;;27.60;94.40;;;;;;5052240;28;20502;-72
2022/05/31 16:17:03;;;;;;;16.02;3.30;;;27.50;94.50;;;;;;5049707;28;20052;-73
2022/05/31 16:20:10;;;;;;;14.95;3.58;;;27.40;94.80;;;;;;5050693;28;20040;-72
2022/05/31 16:23:20;;;;;;;13.10;3.58;;;27.80;94.50;;;;;;5032404;28;20044;-73
2022/05/31 16:26:24;;;;;;;13.82;3.20;;;27.70;94.50;;;;;;5031643;28;20040;-72
2022/05/31 16:29:28;;;;;;;12.52;3.38;;;27.70;94.10;;;;;;5045673;28;20036;-72
2022/05/31 16:32:32;;;;;;;13.85;3.72;;;27.50;94.30;;;;;;5051511;28;20083;-72
2022/05/31 16:35:37;;;;;;;12.30;3.75;;;27.60;94.40;;;;;;5052317;28;20056;-73
2022/05/31 16:42:06;;;;;;;14.90;4.25;;;27.30;94.50;;;;;;5051065;28;20056;-73
2022/05/31 16:45:12;;;;;;;19.00;4.03;;;27.40;95.40;;;;;;5052702;28;20043;-72
2022/05/31 16:48:16;;;;;;;13.90;3.97;;;27.40;95.90;;;;;;5051466;28;20506;-72
2022/05/31 16:51:26;;;;;;;16.55;3.78;;;27.30;95.90;;;;;;5051241;28;20044;-72
2022/05/31 16:54:32;;;;;;;13.18;3.63;;;27.60;95.90;;;;;;5051786;28;20395;-72
2022/05/31 16:57:38;;;;;;;14.10;3.42;;;27.50;95.50;;;;;;5051019;28;20048;-72
2022/05/31 17:00:42;;;;;;;17.45;4.80;;;27.30;95.60;;;;;;5050962;28;20040;-72
2022/05/31 17:03:46;;;;;;;17.23;4.82;;;27.60;95.50;;;;;;5051402;28;20048;-72
2022/05/31 17:17:05;;;;;;;18.90;4.07;;;28.60;95.70;;;;;;5051140;28;20048;-71
2022/05/31 17:20:18;;;;;;;13.07;4.25;;;28.60;95.40;;;;;;5030650;28;20036;-72
2022/05/31 17:23:34;;;;;;;9.93;3.65;;;28.00;95.80;;;;;;5046312;28;20040;-73
2022/05/31 17:26:38;;;;;;;16.17;4.15;;;27.90;96.10;;;;;;5050057;28;20036;-72
2022/05/31 17:29:42;;;;;;;11.75;3.78;;;27.60;96.40;;;;;;5051207;28;20048;-72
2022/05/31 17:32:46;;;;;;;12.80;3.97;;;27.40;96.30;;;;;;5050530;28;20052;-72
2022/05/31 17:36:02;;;;;;;11.82;3.45;;;27.30;96.90;;;;;;5050240;28;20055;-72